createdAt,value
2019-04-05T00:04:40.744Z,35.00
2019-04-05T00:09:47.827Z,39.63
2019-04-05T00:14:53.610Z,36.29
2019-04-05T00:20:00.766Z,37.00
2019-04-05T00:25:06.614Z,37.00
2019-04-05T00:30:13.286Z,35.43
2019-04-05T00:35:20.266Z,37.88
2019-04-05T00:40:25.626Z,36.29
2019-04-05T00:45:29.384Z,41.00
2019-04-05T00:50:33.335Z,39.00
2019-04-05T00:55:36.841Z,43.00
2019-04-05T01:00:40.935Z,34.00
2019-04-05T01:05:49.014Z,36.13
2019-04-05T01:10:52.558Z,42.40
2019-04-05T01:15:58.182Z,41.00
2019-04-05T01:21:09.855Z,35.88
2019-04-05T01:26:20.546Z,38.85
2019-04-05T01:31:28.145Z,35.22
2019-04-05T01:36:33.658Z,40.40
2019-04-05T01:41:41.512Z,33.00
2019-04-05T01:46:47.920Z,35.00
2019-04-05T01:51:59.406Z,46.20
2019-04-05T01:57:12.020Z,34.07
2019-04-05T02:02:16.587Z,34.00
2019-04-05T02:07:25.354Z,33.50
2019-04-05T02:12:34.946Z,34.92
2019-04-05T02:17:41.988Z,35.40
2019-04-05T02:22:48.196Z,33.75
2019-04-05T02:27:56.320Z,34.90
2019-04-05T02:33:02.379Z,43.00
2019-04-05T02:38:14.283Z,35.57
2019-04-05T02:43:23.874Z,42.44
2019-04-05T02:48:28.360Z,31.83
2019-04-05T02:53:38.638Z,32.00
2019-04-05T02:58:47.748Z,32.25
2019-04-05T03:03:54.601Z,30.25
2019-04-05T03:09:03.617Z,36.25
2019-04-05T03:14:11.852Z,35.86
2019-04-05T03:19:17.204Z,39.00
2019-04-05T03:24:22.554Z,33.20
2019-04-05T03:29:33.699Z,35.67
2019-04-05T03:34:44.920Z,46.64
2019-04-05T03:39:50.445Z,34.71
2019-04-05T03:44:53.920Z,39.20
2019-04-05T03:49:57.814Z,42.00
2019-04-05T03:55:01.329Z,41.00
2019-04-05T04:00:06.574Z,36.33
2019-04-05T04:05:14.971Z,32.57
2019-04-05T04:10:24.178Z,37.38
2019-04-05T04:15:29.305Z,33.00
2019-04-05T04:20:37.884Z,38.00
2019-04-05T04:25:47.221Z,44.63
2019-04-05T04:31:01.870Z,43.00
2019-04-05T04:36:05.542Z,38.00
2019-04-05T04:41:09.202Z,33.00
2019-04-05T04:46:19.696Z,52.00
2019-04-05T04:52:31.226Z,42.00
2019-04-05T04:57:43.494Z,39.13
2019-04-05T05:02:47.917Z,39.00
2019-04-05T05:07:52.715Z,60.00
2019-04-05T05:12:57.694Z,40.33
2019-04-05T05:18:02.271Z,36.67
2019-04-05T05:23:07.351Z,40.33
2019-04-05T05:28:16.456Z,42.00
2019-04-05T05:33:20.086Z,40.50
2019-04-05T05:38:23.976Z,44.25
2019-04-05T05:43:33.746Z,45.67
2019-04-05T05:48:40.252Z,37.50
2019-04-05T05:53:48.891Z,39.00
2019-04-05T05:58:58.905Z,38.75
2019-04-05T06:03:59.974Z,37.25
2019-04-05T06:09:08.770Z,36.75
2019-04-05T06:14:18.140Z,35.75
2019-04-05T06:19:24.380Z,36.13
2019-04-05T06:24:32.141Z,40.50
2019-04-05T06:29:37.656Z,31.57
2019-04-05T06:34:43.034Z,32.00
2019-04-05T06:39:50.022Z,35.50
2019-04-05T06:44:54.988Z,32.25
2019-04-05T06:50:01.512Z,33.38
2019-04-05T06:55:06.126Z,34.86
2019-04-05T07:00:14.547Z,34.00
2019-04-05T07:05:17.571Z,31.33
2019-04-05T07:10:25.135Z,36.75
2019-04-05T07:15:33.398Z,35.75
2019-04-05T07:20:40.146Z,35.25
2019-04-05T07:25:45.825Z,45.50
2019-04-05T07:30:51.576Z,32.13
2019-04-05T07:35:58.010Z,41.13
2019-04-05T07:41:01.269Z,37.67
2019-04-05T07:46:06.183Z,33.25
2019-04-05T07:51:14.379Z,38.38
2019-04-05T07:56:17.634Z,38.00
2019-04-05T08:01:21.577Z,32.33
2019-04-05T08:06:31.134Z,32.00
2019-04-05T08:11:38.274Z,26.12
2019-04-05T08:16:41.794Z,30.00
2019-04-05T08:21:49.795Z,23.25
2019-04-05T08:26:53.541Z,22.25
2019-04-05T08:31:58.355Z,32.00
2019-04-05T08:37:05.506Z,29.25
2019-04-05T08:42:10.948Z,29.50
2019-04-05T08:47:16.475Z,25.50
2019-04-05T08:52:20.913Z,27.00
2019-04-05T08:57:25.524Z,26.00
2019-04-05T09:02:33.411Z,28.29
2019-04-05T09:07:41.906Z,27.29
2019-04-05T09:12:47.117Z,27.00
2019-04-05T09:17:53.246Z,25.75
2019-04-05T09:22:57.080Z,23.25
2019-04-05T09:28:01.703Z,32.00
2019-04-05T09:33:07.944Z,23.00
2019-04-05T09:38:15.755Z,24.50
2019-04-05T09:43:20.366Z,25.50
2019-04-05T09:48:28.325Z,23.62
2019-04-05T09:53:32.084Z,31.67
2019-04-05T09:58:35.847Z,25.00
2019-04-05T10:03:39.846Z,27.00
2019-04-05T10:08:45.937Z,21.75
2019-04-05T10:13:49.596Z,23.25
2019-04-05T10:18:53.262Z,17.50
2019-04-05T10:23:58.405Z,19.29
2019-04-05T10:29:01.856Z,34.00
2019-04-05T10:34:07.155Z,28.38
2019-04-05T10:39:14.203Z,20.25
2019-04-05T10:44:19.316Z,18.57
2019-04-05T10:49:22.722Z,15.00
2019-04-05T10:54:27.887Z,18.00
2019-04-05T10:59:32.116Z,18.20
2019-04-05T11:04:37.747Z,17.71
2019-04-05T11:09:42.663Z,19.25
2019-04-05T11:14:48.558Z,21.50
2019-04-05T11:19:52.050Z,19.00
2019-04-05T11:24:55.796Z,20.75
2019-04-05T11:30:01.387Z,15.43
2019-04-05T11:35:05.862Z,21.00
2019-04-05T11:40:13.236Z,15.00
2019-04-05T11:45:16.775Z,23.25
2019-04-05T11:50:33.851Z,21.29
2019-04-05T11:55:28.344Z,20.86
2019-04-05T12:00:32.924Z,19.14
2019-04-05T12:05:37.507Z,18.00
2019-04-05T12:10:42.001Z,18.00
2019-04-05T12:15:46.236Z,14.25
2019-04-05T12:20:59.601Z,14.57
2019-04-05T12:25:57.458Z,16.25
2019-04-05T12:31:03.886Z,15.71
2019-04-05T12:36:09.075Z,15.71
2019-04-05T12:41:18.255Z,13.57
2019-04-05T12:46:23.621Z,16.00
2019-04-05T12:51:31.406Z,16.80
2019-04-05T12:56:37.433Z,13.14
2019-04-05T13:01:45.532Z,13.57
2019-04-05T13:06:54.460Z,15.00
2019-04-05T13:12:00.775Z,15.71
2019-04-05T13:17:05.424Z,12.14
2019-04-05T13:22:09.118Z,18.67
2019-04-05T13:27:13.908Z,11.00
2019-04-05T13:32:21.617Z,10.83
2019-04-05T13:37:25.086Z,44.71
2019-04-05T13:42:31.300Z,14.50
2019-04-05T13:47:38.885Z,13.43
2019-04-05T13:52:44.688Z,13.00
2019-04-05T13:57:49.839Z,12.29
2019-04-05T14:02:57.726Z,33.29
2019-04-05T14:08:10.545Z,17.00
2019-04-05T14:13:09.563Z,18.00
2019-04-05T14:18:15.329Z,6.67
2019-04-05T14:23:23.966Z,12.86
2019-04-05T14:28:26.955Z,13.83
2019-04-05T14:33:30.600Z,31.50
2019-04-05T14:38:36.365Z,13.00
2019-04-05T14:43:44.926Z,14.57
2019-04-05T14:48:50.526Z,14.14
2019-04-05T14:53:55.381Z,16.57
2019-04-05T14:58:59.132Z,17.25
2019-04-05T15:04:05.048Z,15.00
2019-04-05T15:09:10.170Z,13.86
2019-04-05T15:14:16.637Z,21.87
2019-04-05T15:19:22.832Z,14.14
2019-04-05T15:24:31.553Z,16.40
2019-04-05T15:29:35.305Z,19.75
2019-04-05T15:34:41.735Z,14.29
2019-04-05T15:39:44.802Z,24.00
2019-04-05T15:44:51.423Z,19.00
2019-04-05T15:49:54.723Z,18.67
2019-04-05T15:55:01.705Z,36.43
2019-04-05T16:00:06.703Z,19.25
2019-04-05T16:05:12.326Z,27.29
2019-04-05T16:10:20.230Z,23.25
2019-04-05T16:15:24.479Z,31.20
2019-04-05T16:20:30.618Z,32.13
2019-04-05T16:25:36.787Z,32.71
2019-04-05T16:30:42.297Z,45.43
2019-04-05T16:35:45.824Z,23.60
2019-04-05T16:51:10.916Z,24.63
2019-04-05T16:56:15.046Z,37.80
2019-04-05T17:01:28.595Z,25.89
2019-04-05T17:06:32.256Z,22.50
2019-04-05T17:11:39.027Z,25.43
2019-04-05T17:16:45.553Z,24.57
2019-04-05T17:21:50.270Z,28.71
2019-04-05T17:26:55.921Z,30.00
2019-04-05T17:31:58.809Z,25.00
2019-04-05T17:37:08.236Z,40.67
2019-04-05T17:42:11.678Z,33.00
2019-04-05T17:47:15.642Z,30.00
2019-04-05T17:52:22.008Z,30.25
2019-04-05T17:57:29.248Z,20.75
2019-04-05T18:02:33.490Z,30.00
2019-04-05T18:07:36.694Z,39.00
2019-04-05T18:12:43.045Z,35.25
2019-04-05T18:17:55.647Z,39.06
2019-04-05T18:23:03.432Z,31.00
2019-04-05T18:28:11.952Z,35.25
2019-04-05T18:33:15.958Z,39.50
2019-04-05T18:38:19.501Z,35.40
2019-04-05T18:43:28.865Z,35.75
2019-04-05T18:48:36.987Z,35.63
2019-04-05T18:53:45.340Z,42.25
2019-04-05T18:58:49.058Z,39.00
2019-04-05T19:03:53.214Z,32.00
2019-04-05T19:09:02.080Z,34.38
2019-04-05T19:14:11.982Z,33.00
2019-04-05T19:19:20.145Z,31.91
2019-04-05T19:24:28.274Z,33.33
2019-04-05T19:29:38.146Z,42.80
2019-04-05T19:50:10.655Z,41.80
2019-04-05T19:55:15.489Z,35.17
2019-04-05T20:05:29.105Z,41.00
2019-04-05T20:10:33.538Z,35.50
2019-04-05T20:15:37.038Z,50.00
2019-04-05T20:20:44.471Z,38.25
2019-04-05T20:25:50.195Z,39.00
2019-04-05T20:30:54.240Z,36.75
2019-04-05T20:36:02.250Z,42.25
2019-04-05T20:41:06.228Z,37.33
2019-04-05T20:46:10.127Z,36.00
2019-04-05T20:51:18.452Z,38.25
2019-04-05T20:56:21.983Z,36.00
2019-04-05T21:01:27.578Z,35.00
2019-04-05T21:06:31.466Z,36.75
2019-04-05T21:11:38.210Z,34.63
2019-04-05T21:16:44.578Z,37.14
2019-04-05T21:21:47.665Z,40.25
2019-04-05T21:26:56.569Z,34.88
2019-04-05T21:32:00.425Z,40.33
2019-04-05T21:37:06.999Z,42.86
2019-04-05T21:42:12.015Z,42.50
2019-04-05T21:47:18.877Z,52.13
2019-04-05T21:52:25.231Z,48.67
2019-04-05T21:57:30.534Z,40.57
2019-04-05T22:02:40.536Z,39.25
2019-04-05T22:07:47.742Z,40.78
2019-04-05T22:12:53.968Z,37.25
2019-04-05T22:18:03.058Z,48.89
2019-04-05T22:23:10.093Z,42.43
2019-04-05T22:28:16.571Z,38.43
2019-04-05T22:33:24.103Z,69.43
2019-04-05T22:38:45.465Z,41.89
2019-04-05T22:44:04.474Z,39.90
2019-04-05T22:49:11.183Z,39.00
2019-04-05T22:54:16.046Z,39.50
2019-04-05T22:59:24.730Z,40.50
2019-04-05T23:04:32.730Z,40.63
2019-04-05T23:09:38.963Z,39.00
2019-04-05T23:14:45.250Z,39.00
2019-04-05T23:19:51.767Z,41.75
2019-04-05T23:24:59.884Z,36.38
2019-04-05T23:30:06.462Z,40.00
2019-04-05T23:35:10.771Z,39.00
2019-04-05T23:40:14.590Z,41.33
2019-04-05T23:45:18.239Z,38.00
2019-04-05T23:50:26.166Z,37.71
2019-04-05T23:55:34.045Z,42.88
